Time;durP1;ratioP1;P1;durP2;ratioP2;P2;SDS_P1;SDS_P2;PMS_P1;PMS_P2;Temp;Humidity;BMP_temperature;BMP_pressure;BME280_temperature;BME280_humidity;BME280_pressure;Samples;Min_cycle;Max_cycle;Signal;HPM_P1;HPM_P2
2021/12/18 00:00:52;;;;;;;1999.90;999.90;;;6.90;99.90;;;;;;5032537;28;20057;-63
2021/12/18 00:03:18;;;;;;;1999.90;999.90;;;6.80;99.90;;;;;;5031735;28;20484;-63
2021/12/18 00:05:44;;;;;;;1999.90;999.90;;;6.80;99.90;;;;;;5033203;28;20049;-63
2021/12/18 00:08:10;;;;;;;1999.90;999.90;;;6.80;99.90;;;;;;5033106;28;20049;-63
2021/12/18 00:10:36;;;;;;;1999.90;999.90;;;6.80;99.90;;;;;;5031562;28;20059;-64
2021/12/18 00:13:03;;;;;;;1999.90;999.90;;;6.80;99.90;;;;;;5032961;28;20045;-63
2021/12/18 00:15:29;;;;;;;1999.90;999.90;;;6.80;99.90;;;;;;5015190;28;20060;-63
2021/12/18 00:17:56;;;;;;;1999.90;999.90;;;6.80;99.90;;;;;;5031985;28;20077;-63
2021/12/18 00:20:25;;;;;;;1999.90;999.90;;;6.70;99.90;;;;;;5032553;28;20503;-63
2021/12/18 00:22:51;;;;;;;1999.90;999.90;;;6.70;99.90;;;;;;5032817;28;20041;-63
2021/12/18 00:25:17;;;;;;;1999.90;999.90;;;6.80;99.90;;;;;;5031963;28;20045;-63
2021/12/18 00:27:43;;;;;;;1999.90;999.90;;;6.80;99.90;;;;;;5033021;28;20119;-63
2021/12/18 00:30:09;;;;;;;1999.90;999.90;;;6.80;99.90;;;;;;5032415;28;20041;-63
2021/12/18 00:32:35;;;;;;;1999.90;999.90;;;6.80;99.90;;;;;;5031972;28;20459;-63
2021/12/18 00:35:01;;;;;;;1999.90;999.90;;;6.80;99.90;;;;;;5032705;28;20038;-63
2021/12/18 00:37:27;;;;;;;1999.90;999.90;;;6.80;99.90;;;;;;5032921;28;20049;-63
2021/12/18 00:39:56;;;;;;;1999.90;999.90;;;6.70;99.90;;;;;;5031542;28;20046;-63
2021/12/18 00:42:40;;;;;;;1999.90;999.90;;;6.70;99.90;;;;;;5032721;28;20052;-63
2021/12/18 00:45:09;;;;;;;1999.90;999.90;;;6.70;99.90;;;;;;5027437;28;20132;-63
2021/12/18 00:47:35;;;;;;;1999.90;999.90;;;6.70;99.90;;;;;;5018400;28;20555;-63
2021/12/18 00:50:02;;;;;;;1999.90;999.90;;;6.60;99.90;;;;;;5032634;28;20202;-63
2021/12/18 00:52:28;;;;;;;1999.90;999.90;;;6.70;99.90;;;;;;5031875;28;20045;-63
2021/12/18 00:54:54;;;;;;;1999.90;999.90;;;6.70;99.90;;;;;;5032310;28;20049;-63
2021/12/18 00:57:20;;;;;;;1999.90;999.90;;;6.70;99.90;;;;;;5032327;28;20064;-63
2021/12/18 00:59:48;;;;;;;1999.90;999.90;;;6.60;99.90;;;;;;5031919;28;20088;-63
2021/12/18 01:02:14;;;;;;;1999.90;999.90;;;6.70;99.90;;;;;;5032022;28;20065;-63
2021/12/18 01:04:40;;;;;;;1999.90;999.90;;;6.70;99.90;;;;;;5032009;28;20049;-63
2021/12/18 01:07:06;;;;;;;1999.90;999.90;;;6.70;99.90;;;;;;5047101;28;20488;-63
2021/12/18 01:09:49;;;;;;;1999.90;999.90;;;6.60;99.90;;;;;;5032271;28;20049;-63
2021/12/18 01:12:15;;;;;;;;;;;6.60;99.90;;;;;;5032872;28;20088;-63
2021/12/18 01:15:04;;;;;;;1999.90;999.90;;;6.60;99.90;;;;;;5031269;28;19979;-62
2021/12/18 01:22:48;;;;;;;1999.90;999.90;;;6.50;99.90;;;;;;5036195;28;20041;-63
2021/12/18 01:25:17;;;;;;;1999.90;999.90;;;6.60;99.90;;;;;;5036046;28;20049;-63
2021/12/18 01:27:43;;;;;;;1999.90;999.90;;;6.50;99.90;;;;;;5035407;28;20120;-63
2021/12/18 01:30:11;;;;;;;1999.90;999.90;;;6.50;99.90;;;;;;5051170;28;20127;-63
2021/12/18 01:32:37;;;;;;;1999.90;999.90;;;6.50;99.90;;;;;;5035512;28;20033;-63
2021/12/18 01:35:04;;;;;;;1999.90;999.90;;;6.50;99.90;;;;;;5050599;28;20452;-63
2021/12/18 01:37:30;;;;;;;1999.90;999.90;;;6.50;99.90;;;;;;5035895;28;20044;-63
2021/12/18 01:39:56;;;;;;;1999.90;999.90;;;6.50;99.90;;;;;;5035736;28;20041;-63
2021/12/18 01:45:07;;;;;;;1999.90;999.90;;;6.50;99.90;;;;;;5035888;28;20115;-63
2021/12/18 01:53:02;;;;;;;1999.90;999.90;;;6.50;99.90;;;;;;5035537;28;20088;-63
2021/12/18 01:55:31;;;;;;;1999.90;999.90;;;6.50;99.90;;;;;;5035078;28;20050;-63
2021/12/18 01:57:58;;;;;;;1999.90;999.90;;;6.50;99.90;;;;;;5035414;28;20099;-63
2021/12/18 02:00:36;;;;;;;1999.90;999.90;;;6.50;99.90;;;;;;5035114;28;20044;-63
2021/12/18 02:03:02;;;;;;;1999.90;999.90;;;6.50;99.90;;;;;;5049892;28;20479;-63
2021/12/18 02:05:28;;;;;;;1999.90;999.90;;;6.50;99.90;;;;;;5035519;28;20049;-63
2021/12/18 02:07:54;;;;;;;1999.90;999.90;;;6.50;99.90;;;;;;5050069;28;20053;-63
2021/12/18 02:10:23;;;;;;;1999.90;999.90;;;6.50;99.90;;;;;;5016889;28;20404;-62
2021/12/18 02:13:05;;;;;;;1999.90;999.90;;;6.50;99.90;;;;;;5035379;28;20136;-63
2021/12/18 02:21:10;;;;;;;1999.90;999.90;;;6.50;99.90;;;;;;5035110;28;20046;-63
2021/12/18 02:23:38;;;;;;;1999.90;999.90;;;6.50;99.90;;;;;;5034169;28;20053;-63
2021/12/18 02:26:04;;;;;;;1999.90;999.90;;;6.50;99.90;;;;;;5034580;28;20049;-63
2021/12/18 02:28:30;;;;;;;1999.90;999.90;;;6.50;99.90;;;;;;5035212;28;20057;-62
2021/12/18 02:30:57;;;;;;;1999.90;999.90;;;6.50;99.90;;;;;;5033477;28;20041;-63
2021/12/18 02:33:25;;;;;;;1999.90;999.90;;;6.50;99.90;;;;;;5033342;28;21218;-63
2021/12/18 02:35:54;;;;;;;1999.90;999.90;;;6.50;99.90;;;;;;5050208;28;20092;-62
2021/12/18 02:38:25;;;;;;;1999.90;999.90;;;6.50;99.90;;;;;;5033797;28;20042;-63
2021/12/18 02:43:27;;;;;;;1999.90;999.90;;;6.50;99.90;;;;;;5034210;28;20186;-63
2021/12/18 02:45:56;;;;;;;1999.90;999.90;;;6.60;99.90;;;;;;5033630;28;20139;-63
2021/12/18 02:48:22;;;;;;;1999.90;999.90;;;6.50;99.90;;;;;;5034721;28;20041;-63
2021/12/18 02:50:48;;;;;;;1999.90;999.90;;;6.50;99.90;;;;;;5033922;28;20152;-63
2021/12/18 02:53:13;;;;;;;1999.90;999.90;;;6.50;99.90;;;;;;5015854;28;20088;-63
2021/12/18 02:55:39;;;;;;;1999.90;999.90;;;6.50;99.90;;;;;;5034798;28;20172;-63
2021/12/18 02:58:05;;;;;;;1999.90;999.90;;;6.50;99.90;;;;;;5034496;28;20057;-63
2021/12/18 03:00:31;;;;;;;1999.90;999.90;;;6.60;99.90;;;;;;5015507;28;20045;-63
2021/12/18 03:02:57;;;;;;;1999.90;999.90;;;6.50;99.90;;;;;;5034350;28;20053;-63
2021/12/18 03:05:31;;;;;;;1999.90;999.90;;;6.50;99.90;;;;;;5033514;28;20506;-62
2021/12/18 03:08:06;;;;;;;1999.90;999.90;;;6.60;99.90;;;;;;5034252;28;20059;-63
2021/12/18 03:19:29;;;;;;;1999.90;999.90;;;6.50;99.90;;;;;;5033662;28;20148;-63
2021/12/18 03:26:47;;;;;;;1999.90;999.90;;;6.50;99.90;;;;;;5032967;28;20041;-62
2021/12/18 03:29:12;;;;;;;1999.90;999.90;;;6.50;99.90;;;;;;5033544;28;20049;-63
2021/12/18 03:31:38;;;;;;;1999.90;999.90;;;6.50;99.90;;;;;;5033684;28;20134;-63
2021/12/18 03:34:04;;;;;;;1999.90;999.90;;;6.50;99.90;;;;;;5033198;28;20057;-63
2021/12/18 03:36:30;;;;;;;1999.90;999.90;;;6.50;99.90;;;;;;5033011;28;20057;-62
2021/12/18 03:38:55;;;;;;;1999.90;999.90;;;6.50;99.90;;;;;;5033736;28;20053;-63
2021/12/18 03:41:21;;;;;;;1999.90;999.90;;;6.50;99.90;;;;;;5033170;28;20107;-63
2021/12/18 03:43:47;;;;;;;1999.90;999.90;;;6.50;99.90;;;;;;5032968;28;20072;-63
2021/12/18 03:46:13;;;;;;;1999.90;999.90;;;6.50;99.90;;;;;;5033273;28;20083;-63
2021/12/18 03:48:38;;;;;;;1999.90;999.90;;;6.50;99.90;;;;;;5032755;28;20079;-63
2021/12/18 03:51:04;;;;;;;1999.90;999.90;;;6.50;99.90;;;;;;5033285;28;20054;-63
2021/12/18 03:53:30;;;;;;;1999.90;999.90;;;6.50;99.90;;;;;;5032605;28;20049;-63
2021/12/18 03:55:56;;;;;;;1999.90;999.90;;;6.50;99.90;;;;;;5032934;28;20119;-63
2021/12/18 03:58:21;;;;;;;1999.90;999.90;;;6.40;99.90;;;;;;5015561;28;20053;-63
2021/12/18 04:00:47;;;;;;;1999.90;999.90;;;6.50;99.90;;;;;;5032907;28;20053;-63
2021/12/18 04:03:13;;;;;;;1999.90;999.90;;;6.50;99.90;;;;;;5031943;28;20514;-62
2021/12/18 04:05:39;;;;;;;1999.90;999.90;;;6.50;99.90;;;;;;5033066;28;20102;-62
2021/12/18 04:08:11;;;;;;;1999.90;999.90;;;6.50;99.90;;;;;;5032980;28;20120;-63
2021/12/18 04:10:39;;;;;;;1999.90;999.90;;;6.50;99.90;;;;;;5014145;28;20060;-63
2021/12/18 04:13:07;;;;;;;1999.90;999.90;;;6.50;99.90;;;;;;5033129;28;20053;-63
2021/12/18 04:15:33;;;;;;;1999.90;999.90;;;6.50;99.90;;;;;;5032695;28;20507;-63
2021/12/18 04:17:59;;;;;;;1999.90;999.90;;;6.60;99.90;;;;;;5040697;28;20571;-63
2021/12/18 04:20:25;;;;;;;1999.90;999.90;;;6.50;99.90;;;;;;5041238;28;20175;-63
2021/12/18 04:22:51;;;;;;;1999.90;999.90;;;6.60;99.90;;;;;;5041295;28;20090;-62
2021/12/18 04:25:17;;;;;;;1999.90;999.90;;;6.50;99.90;;;;;;5043597;28;20121;-63
2021/12/18 04:27:43;;;;;;;1999.90;999.90;;;6.60;99.90;;;;;;5035953;28;20618;-63
2021/12/18 04:30:09;;;;;;;1999.90;999.90;;;6.60;99.90;;;;;;5031384;28;20042;-62
2021/12/18 04:32:35;;;;;;;1999.90;999.90;;;6.60;99.90;;;;;;5015801;28;20050;-63
2021/12/18 04:35:01;;;;;;;1999.90;999.90;;;6.60;99.90;;;;;;5012812;28;20049;-63
2021/12/18 04:37:26;;;;;;;1999.90;999.90;;;6.60;99.90;;;;;;4998603;28;20057;-63
2021/12/18 04:39:52;;;;;;;1999.90;999.90;;;6.60;99.90;;;;;;5032827;28;20060;-63
2021/12/18 04:42:20;;;;;;;1999.90;999.90;;;6.60;99.90;;;;;;5014929;28;20100;-63
2021/12/18 04:44:46;;;;;;;1999.90;999.90;;;6.60;99.90;;;;;;5031819;28;20053;-62
2021/12/18 04:47:12;;;;;;;1999.90;999.90;;;6.60;99.90;;;;;;5032375;28;20115;-63
2021/12/18 04:49:38;;;;;;;1999.90;999.90;;;6.60;99.90;;;;;;5032593;28;20085;-62
2021/12/18 04:52:05;;;;;;;1999.90;999.90;;;6.60;99.90;;;;;;5031692;28;20095;-63
2021/12/18 04:54:31;;;;;;;1999.90;999.90;;;6.60;99.90;;;;;;5032805;28;20046;-63
2021/12/18 04:56:57;;;;;;;1999.90;999.90;;;6.60;99.90;;;;;;5036295;28;20127;-63
2021/12/18 04:59:23;;;;;;;1999.90;999.90;;;6.60;99.90;;;;;;5035896;28;20041;-63
2021/12/18 05:01:51;;;;;;;1999.90;999.90;;;6.70;99.90;;;;;;5036498;28;20697;-63
2021/12/18 05:04:17;;;;;;;1999.90;999.90;;;6.70;99.90;;;;;;5036159;28;20103;-63
2021/12/18 05:06:45;;;;;;;1999.90;999.90;;;6.70;99.90;;;;;;5035556;28;20466;-62
2021/12/18 05:09:14;;;;;;;1999.90;999.90;;;6.70;99.90;;;;;;5036642;28;20077;-62
2021/12/18 05:11:42;;;;;;;1999.90;999.90;;;6.80;99.90;;;;;;5036436;28;20041;-63
2021/12/18 05:14:08;;;;;;;1999.90;999.90;;;6.80;99.90;;;;;;5035232;28;20053;-63
2021/12/18 05:16:34;;;;;;;1999.90;999.90;;;6.80;99.90;;;;;;5036287;28;20056;-62
2021/12/18 05:19:00;;;;;;;1999.90;999.90;;;6.80;99.90;;;;;;5035649;28;20045;-62
2021/12/18 05:21:26;;;;;;;1999.90;999.90;;;6.80;99.90;;;;;;5035772;28;20049;-63
2021/12/18 05:23:52;;;;;;;1999.90;999.90;;;6.90;99.90;;;;;;5036354;28;20045;-63
2021/12/18 05:26:18;;;;;;;1999.90;999.90;;;6.90;99.90;;;;;;5035455;28;20179;-63
2021/12/18 05:28:44;;;;;;;1999.90;999.90;;;6.90;99.90;;;;;;5035707;28;20038;-62
2021/12/18 05:31:13;;;;;;;1999.90;999.90;;;7.00;99.90;;;;;;5035754;28;20049;-63
2021/12/18 05:33:39;;;;;;;1999.90;999.90;;;6.90;99.90;;;;;;5035392;28;20045;-62
2021/12/18 05:36:24;;;;;;;1999.90;999.90;;;6.90;99.90;;;;;;5035900;28;20053;-62
2021/12/18 05:38:49;;;;;;;1999.90;999.90;;;6.90;99.90;;;;;;5035967;28;20542;-62
2021/12/18 05:41:15;;;;;;;1999.90;999.90;;;6.90;99.90;;;;;;5034946;28;20066;-62
2021/12/18 05:43:41;;;;;;;1999.90;999.90;;;7.00;99.90;;;;;;5035440;28;20048;-62
2021/12/18 05:46:06;;;;;;;1999.90;999.90;;;7.00;99.90;;;;;;5035935;28;20057;-63
2021/12/18 05:48:32;;;;;;;1999.90;999.90;;;7.00;99.90;;;;;;5034900;28;20052;-63
2021/12/18 05:50:58;;;;;;;1999.90;999.90;;;7.00;99.90;;;;;;5035255;28;20491;-63
2021/12/18 05:53:23;;;;;;;1999.90;999.90;;;7.00;99.90;;;;;;5018106;28;20045;-62
2021/12/18 05:55:49;;;;;;;1999.90;999.90;;;7.10;99.90;;;;;;5034891;28;20136;-63
2021/12/18 05:58:15;;;;;;;1999.90;999.90;;;7.10;99.90;;;;;;5034952;28;20125;-62
2021/12/18 06:00:41;;;;;;;1999.90;999.90;;;7.10;99.90;;;;;;5035225;28;20381;-63
2021/12/18 06:03:06;;;;;;;1999.90;999.90;;;7.10;99.90;;;;;;5034706;28;20127;-63
2021/12/18 06:05:32;;;;;;;1999.90;999.90;;;7.20;99.90;;;;;;5029572;28;20145;-63
2021/12/18 06:07:58;;;;;;;1999.90;999.90;;;7.10;99.90;;;;;;5035516;28;20054;-63
2021/12/18 06:10:28;;;;;;;1999.90;999.90;;;7.10;99.90;;;;;;5034648;28;20057;-63
2021/12/18 06:12:57;;;;;;;1999.90;999.90;;;7.10;99.90;;;;;;5035104;28;20049;-62
2021/12/18 06:15:23;;;;;;;1999.90;999.90;;;7.20;99.90;;;;;;5034329;28;20049;-63
2021/12/18 06:17:49;;;;;;;1999.90;999.90;;;7.20;99.90;;;;;;5035396;28;20107;-63
2021/12/18 06:20:15;;;;;;;1999.90;999.90;;;7.20;99.90;;;;;;5034858;28;20516;-62
2021/12/18 06:22:40;;;;;;;1999.90;999.90;;;7.20;99.90;;;;;;5034578;28;20046;-63
2021/12/18 06:25:07;;;;;;;1999.90;999.90;;;7.30;99.90;;;;;;5034933;28;20083;-63
2021/12/18 06:27:33;;;;;;;1999.90;999.90;;;7.20;99.90;;;;;;5034503;28;20046;-63
2021/12/18 06:30:01;;;;;;;1999.90;999.90;;;7.20;99.90;;;;;;5034231;28;20048;-63
2021/12/18 06:32:27;;;;;;;1999.90;999.90;;;7.20;99.90;;;;;;5034699;28;20472;-62
2021/12/18 06:34:53;;;;;;;1999.90;999.90;;;7.20;99.90;;;;;;5016994;28;20049;-63
2021/12/18 06:37:18;;;;;;;1999.90;999.90;;;7.20;99.90;;;;;;5034332;28;20046;-63
2021/12/18 06:39:44;;;;;;;1999.90;999.90;;;7.20;99.90;;;;;;5017283;28;20049;-63
2021/12/18 06:42:10;;;;;;;1999.90;999.90;;;7.30;99.90;;;;;;5034261;28;20503;-63
2021/12/18 06:44:36;;;;;;;1999.90;999.90;;;7.30;99.90;;;;;;5034010;28;20060;-63
2021/12/18 06:47:02;;;;;;;1999.90;999.90;;;7.30;99.90;;;;;;5016867;28;20054;-63
2021/12/18 06:49:27;;;;;;;1999.90;999.90;;;7.30;99.90;;;;;;5034336;28;20052;-63
2021/12/18 06:51:54;;;;;;;1999.90;999.90;;;7.40;99.90;;;;;;5033323;28;20041;-63
2021/12/18 06:54:19;;;;;;;1999.90;999.90;;;7.40;99.90;;;;;;5034458;28;20511;-63
2021/12/18 06:56:45;;;;;;;1999.90;999.90;;;7.40;99.90;;;;;;5034063;28;20061;-63
2021/12/18 06:59:11;;;;;;;1999.90;999.90;;;7.50;99.90;;;;;;5033606;28;20045;-63
2021/12/18 07:01:37;;;;;;;1999.90;999.90;;;7.50;99.90;;;;;;5034293;28;20057;-63
2021/12/18 07:04:02;;;;;;;1999.90;999.90;;;7.50;99.90;;;;;;5033767;28;20122;-63
2021/12/18 07:06:29;;;;;;;1999.90;999.90;;;7.40;99.90;;;;;;5033516;28;20477;-63
2021/12/18 07:08:54;;;;;;;1999.90;999.90;;;7.50;99.90;;;;;;5033931;28;20045;-63
2021/12/18 07:11:20;;;;;;;1999.90;999.90;;;7.50;99.90;;;;;;5033648;28;20107;-63
2021/12/18 07:13:46;;;;;;;1999.90;999.90;;;7.50;99.90;;;;;;5033528;28;20049;-63
2021/12/18 07:16:12;;;;;;;1999.90;999.90;;;7.50;99.90;;;;;;5034276;28;20142;-63
2021/12/18 07:18:37;;;;;;;1999.90;999.90;;;7.50;99.90;;;;;;5032107;28;20052;-63
2021/12/18 07:21:03;;;;;;;1999.90;999.90;;;7.50;99.90;;;;;;5033898;28;20061;-63
2021/12/18 07:23:29;;;;;;;1999.90;999.90;;;7.50;99.90;;;;;;5034107;28;20099;-63
2021/12/18 07:25:55;;;;;;;1999.90;999.90;;;7.60;99.90;;;;;;5032648;28;20091;-63
2021/12/18 07:28:21;;;;;;;1999.90;999.90;;;7.60;99.90;;;;;;5034072;28;20037;-63
2021/12/18 07:30:46;;;;;;;1999.90;999.90;;;7.60;99.90;;;;;;5033486;28;20053;-63
2021/12/18 07:33:12;;;;;;;1999.90;999.90;;;7.60;99.90;;;;;;5048151;28;20500;-63
2021/12/18 07:35:38;;;;;;;1999.90;999.90;;;7.70;99.90;;;;;;5033640;28;20045;-63
2021/12/18 07:38:04;;;;;;;1999.90;999.90;;;7.60;99.90;;;;;;5033664;28;20054;-63
2021/12/18 07:40:31;;;;;;;1999.90;999.90;;;7.70;99.90;;;;;;5048040;28;20107;-63
2021/12/18 07:42:57;;;;;;;1999.90;999.90;;;7.70;99.90;;;;;;5033210;28;20045;-63
2021/12/18 07:45:22;;;;;;;1999.90;999.90;;;7.70;99.90;;;;;;5049197;28;20067;-63
2021/12/18 07:47:48;;;;;;;1999.90;999.90;;;7.70;99.90;;;;;;5032826;28;20048;-63
2021/12/18 07:50:18;;;;;;;1999.90;999.90;;;7.60;99.90;;;;;;5032888;28;20037;-63
2021/12/18 07:52:47;;;;;;;1999.90;999.90;;;7.70;99.90;;;;;;5033008;28;20052;-63
2021/12/18 07:55:12;;;;;;;1999.90;999.90;;;7.80;99.90;;;;;;5032427;28;20175;-63
2021/12/18 07:57:39;;;;;;;1999.90;999.90;;;7.70;99.90;;;;;;5015380;28;20486;-63
2021/12/18 08:00:06;;;;;;;1999.90;999.90;;;7.80;99.90;;;;;;5033507;28;20045;-63
2021/12/18 08:02:32;;;;;;;1999.90;999.90;;;7.80;99.90;;;;;;5031944;28;20546;-63
2021/12/18 08:04:58;;;;;;;1999.90;999.90;;;7.80;99.90;;;;;;5032709;28;20140;-63
2021/12/18 08:07:25;;;;;;;1999.90;999.90;;;7.70;99.90;;;;;;5033049;28;20128;-63
2021/12/18 08:09:51;;;;;;;1999.90;999.90;;;7.80;99.90;;;;;;5031659;28;20500;-63
2021/12/18 08:12:16;;;;;;;1999.90;999.90;;;7.80;99.90;;;;;;5032940;28;20045;-63
2021/12/18 08:14:42;;;;;;;1999.90;999.90;;;7.90;99.90;;;;;;5032841;28;20053;-63
2021/12/18 08:17:08;;;;;;;1999.90;999.90;;;7.90;99.90;;;;;;5033452;28;20041;-63
2021/12/18 08:19:34;;;;;;;1999.90;999.90;;;7.90;99.90;;;;;;5032608;28;20487;-63
2021/12/18 08:22:01;;;;;;;1999.90;999.90;;;7.90;99.90;;;;;;5032202;28;20662;-63
2021/12/18 08:24:27;;;;;;;1999.90;999.90;;;7.90;99.90;;;;;;5033050;28;20052;-63
2021/12/18 08:26:53;;;;;;;1999.90;999.90;;;7.90;99.90;;;;;;5032700;28;20419;-63
2021/12/18 08:29:19;;;;;;;1999.90;999.90;;;8.00;99.90;;;;;;5031293;28;20045;-63
2021/12/18 08:31:45;;;;;;;1999.90;999.90;;;8.00;99.90;;;;;;5032278;28;20068;-63
2021/12/18 08:34:11;;;;;;;1999.90;999.90;;;7.90;99.90;;;;;;5032377;28;20081;-63
2021/12/18 08:36:37;;;;;;;1999.90;999.90;;;8.00;99.90;;;;;;5031723;28;20050;-63
2021/12/18 08:39:03;;;;;;;1999.90;999.90;;;8.00;99.90;;;;;;5032857;28;20041;-63
2021/12/18 08:41:29;;;;;;;1999.90;999.90;;;8.00;99.90;;;;;;5032719;28;20180;-63
2021/12/18 08:43:55;;;;;;;1999.90;999.90;;;8.10;99.90;;;;;;5031900;28;20124;-63
2021/12/18 08:46:21;;;;;;;1999.90;999.90;;;8.00;99.90;;;;;;5032600;28;20056;-63
2021/12/18 08:48:47;;;;;;;1999.90;999.90;;;8.00;99.90;;;;;;5032796;28;20037;-63
2021/12/18 08:51:13;;;;;;;1999.90;999.90;;;8.00;99.90;;;;;;5031711;28;20197;-63
2021/12/18 08:53:39;;;;;;;1999.90;999.90;;;8.10;99.90;;;;;;5032460;28;20118;-63
2021/12/18 08:56:05;;;;;;;1999.90;999.90;;;8.00;99.90;;;;;;5037786;28;20471;-63
2021/12/18 08:58:31;;;;;;;1999.90;999.90;;;8.00;99.90;;;;;;5037482;28;20499;-63
2021/12/18 09:00:58;;;;;;;1999.90;999.90;;;8.00;99.90;;;;;;5032264;28;20415;-63
2021/12/18 09:03:24;;;;;;;1999.90;999.90;;;8.10;99.90;;;;;;5031651;28;20042;-62
2021/12/18 09:05:50;;;;;;;1999.90;999.90;;;8.00;99.90;;;;;;5039816;28;20041;-63
2021/12/18 09:08:16;;;;;;;1999.90;999.90;;;8.00;99.90;;;;;;5042494;28;20042;-63
2021/12/18 09:10:42;;;;;;;1999.90;999.90;;;8.10;99.90;;;;;;5040511;28;20049;-63
2021/12/18 09:13:08;;;;;;;1999.90;999.90;;;8.00;99.90;;;;;;5039986;28;20041;-63
2021/12/18 09:15:34;;;;;;;1999.90;999.90;;;8.00;99.90;;;;;;5042538;28;20048;-63
2021/12/18 09:18:00;;;;;;;1999.90;999.90;;;8.10;99.90;;;;;;5039747;28;20045;-63
2021/12/18 09:20:25;;;;;;;1999.90;999.90;;;8.10;99.90;;;;;;5038383;28;20056;-63
2021/12/18 09:22:51;;;;;;;1999.90;999.90;;;8.10;99.90;;;;;;5039189;28;20068;-63
2021/12/18 09:25:17;;;;;;;1999.90;999.90;;;8.10;99.90;;;;;;5032469;28;20056;-63
2021/12/18 09:27:43;;;;;;;1999.90;999.90;;;8.20;99.90;;;;;;5032065;28;20492;-63
2021/12/18 09:30:12;;;;;;;1999.90;999.90;;;8.20;99.90;;;;;;5031472;28;20079;-63
2021/12/18 09:32:38;;;;;;;1999.90;999.90;;;8.20;99.90;;;;;;5024369;28;20046;-63
2021/12/18 09:35:05;;;;;;;1999.90;999.90;;;8.30;99.90;;;;;;5048507;28;20049;-63
2021/12/18 09:37:32;;;;;;;1999.90;999.90;;;8.30;99.90;;;;;;5052153;28;20053;-63
2021/12/18 09:39:58;;;;;;;1999.90;999.90;;;8.30;99.90;;;;;;5032440;28;20053;-63
2021/12/18 09:42:23;;;;;;;1999.90;999.90;;;8.30;99.90;;;;;;5034254;28;20076;-63
2021/12/18 09:44:51;;;;;;;1999.90;999.90;;;8.30;99.90;;;;;;5035657;28;20103;-63
2021/12/18 09:47:19;;;;;;;1999.90;999.90;;;8.30;99.90;;;;;;5034151;28;20049;-63
2021/12/18 09:49:46;;;;;;;1999.90;999.90;;;8.40;99.90;;;;;;5034790;28;20045;-63
2021/12/18 09:52:11;;;;;;;1999.90;999.90;;;8.40;99.90;;;;;;5035802;28;20523;-63
2021/12/18 09:54:38;;;;;;;1999.90;999.90;;;8.40;99.90;;;;;;5034545;28;20073;-63
2021/12/18 09:57:04;;;;;;;1999.90;999.90;;;8.40;99.90;;;;;;5035086;28;20111;-62
2021/12/18 09:59:29;;;;;;;1999.90;999.90;;;8.40;99.90;;;;;;5035020;28;20179;-63
2021/12/18 10:01:55;;;;;;;1999.90;999.90;;;8.50;99.90;;;;;;5049002;28;20057;-63
2021/12/18 10:04:26;;;;;;;1999.90;999.90;;;8.50;99.90;;;;;;5056677;28;20045;-63
2021/12/18 10:06:53;;;;;;;1999.90;999.90;;;8.50;99.90;;;;;;5015445;28;20057;-63
2021/12/18 10:09:18;;;;;;;1999.90;999.90;;;8.50;99.90;;;;;;5033608;28;20038;-63
2021/12/18 10:11:47;;;;;;;1999.90;999.90;;;8.50;99.90;;;;;;5035021;28;20506;-63
2021/12/18 10:14:13;;;;;;;1999.90;999.90;;;8.50;99.90;;;;;;5034925;28;20060;-63
2021/12/18 10:16:46;;;;;;;1999.90;999.90;;;8.60;99.90;;;;;;5033781;28;20049;-63
2021/12/18 10:19:29;;;;;;;1999.90;999.90;;;8.60;99.90;;;;;;5035323;28;20045;-63
2021/12/18 10:22:04;;;;;;;1999.90;999.90;;;8.60;99.90;;;;;;5034441;28;20053;-64
2021/12/18 10:24:32;;;;;;;1999.90;999.90;;;8.60;99.90;;;;;;5034227;28;20088;-63
2021/12/18 10:26:58;;;;;;;1999.90;999.90;;;8.60;99.90;;;;;;5055548;28;20044;-64
2021/12/18 10:29:33;;;;;;;1999.90;999.90;;;8.70;99.90;;;;;;5054134;28;20045;-63
2021/12/18 10:32:06;;;;;;;1999.90;999.90;;;8.70;99.90;;;;;;5034273;28;20049;-63
2021/12/18 10:34:31;;;;;;;1999.90;999.90;;;8.70;99.90;;;;;;5016609;28;20045;-63
2021/12/18 10:37:15;;;;;;;1999.90;999.90;;;8.70;99.90;;;;;;5034013;28;20060;-63
2021/12/18 10:39:45;;;;;;;1999.90;999.90;;;8.80;99.90;;;;;;5034254;28;20405;-63
2021/12/18 10:42:28;;;;;;;1999.90;999.90;;;8.80;99.90;;;;;;5034377;28;20049;-63
2021/12/18 10:44:58;;;;;;;1999.90;999.90;;;8.80;99.90;;;;;;5033356;28;20125;-63
2021/12/18 10:47:25;;;;;;;1999.90;999.90;;;8.80;99.90;;;;;;5034286;28;20132;-63
2021/12/18 10:49:51;;;;;;;1999.90;999.90;;;8.80;99.90;;;;;;5033466;28;20045;-63
2021/12/18 10:52:17;;;;;;;1999.90;999.90;;;8.90;99.90;;;;;;5033559;28;20196;-63
2021/12/18 10:54:43;;;;;;;1999.90;999.90;;;8.80;99.90;;;;;;5033327;28;20120;-63
2021/12/18 10:57:20;;;;;;;1999.90;999.90;;;8.80;99.90;;;;;;5015781;28;20454;-63
2021/12/18 10:59:48;;;;;;;1999.90;999.90;;;8.70;99.90;;;;;;5049118;28;20081;-63
2021/12/18 11:02:15;;;;;;;1999.90;999.90;;;8.80;99.90;;;;;;5033441;28;20060;-63
2021/12/18 11:04:43;;;;;;;1999.90;999.90;;;8.80;99.90;;;;;;5033009;28;20049;-63
2021/12/18 11:07:28;;;;;;;1999.90;999.90;;;8.80;99.90;;;;;;5052145;28;20053;-64
2021/12/18 11:10:13;;;;;;;1999.90;999.90;;;8.80;99.90;;;;;;5033930;28;20396;-64
2021/12/18 11:15:25;;;;;;;1999.90;999.90;;;8.80;99.90;;;;;;5043588;28;20120;-64
2021/12/18 11:17:51;;;;;;;1999.90;999.90;;;8.80;99.90;;;;;;5042787;28;20057;-63
2021/12/18 11:20:18;;;;;;;1999.90;999.90;;;8.80;99.90;;;;;;5043075;28;20053;-64
2021/12/18 11:22:44;;;;;;;1999.90;999.90;;;8.80;99.90;;;;;;5044431;28;20106;-63
2021/12/18 11:25:12;;;;;;;1999.90;999.90;;;8.90;99.90;;;;;;5044507;28;20041;-63
2021/12/18 11:27:39;;;;;;;1999.90;999.90;;;8.80;99.90;;;;;;5053507;28;20049;-64
2021/12/18 11:30:10;;;;;;;1999.90;999.90;;;8.90;99.90;;;;;;5048360;28;20080;-63
2021/12/18 11:32:40;;;;;;;1999.90;999.90;;;8.90;99.90;;;;;;5033104;28;20073;-64
2021/12/18 11:35:12;;;;;;;1999.90;999.90;;;9.00;99.90;;;;;;5037152;28;20048;-63
2021/12/18 11:37:42;;;;;;;1999.90;999.90;;;8.90;99.90;;;;;;5042098;28;20139;-63
2021/12/18 11:40:12;;;;;;;1999.90;999.90;;;8.90;99.90;;;;;;5019323;28;20148;-64
2021/12/18 11:42:37;;;;;;;1999.90;999.90;;;9.00;99.90;;;;;;5033488;28;20030;-63
2021/12/18 11:45:07;;;;;;;1999.90;999.90;;;9.00;99.90;;;;;;5042178;28;20052;-63
2021/12/18 11:47:37;;;;;;;1999.90;999.90;;;8.90;99.90;;;;;;5042077;28;20056;-64
2021/12/18 11:50:20;;;;;;;1999.90;999.90;;;9.00;99.90;;;;;;5045205;28;20491;-64
2021/12/18 11:53:08;;;;;;;1999.90;999.90;;;8.90;99.90;;;;;;5033752;28;20132;-63
2021/12/18 11:55:53;;;;;;;1999.90;999.90;;;8.90;99.90;;;;;;5033248;28;20484;-64
2021/12/18 11:58:23;;;;;;;1999.90;999.90;;;8.90;99.90;;;;;;5033545;28;20073;-64
2021/12/18 12:00:59;;;;;;;1999.90;999.90;;;8.90;99.90;;;;;;5031814;28;20049;-63
2021/12/18 12:03:33;;;;;;;1999.90;999.90;;;8.90;99.90;;;;;;5032905;28;20037;-63
2021/12/18 12:06:01;;;;;;;1999.90;999.90;;;8.90;99.90;;;;;;5033242;28;20045;-63
2021/12/18 12:08:39;;;;;;;1999.90;999.90;;;8.90;99.90;;;;;;5031676;28;20119;-64
2021/12/18 12:11:05;;;;;;;1999.90;999.90;;;8.90;99.90;;;;;;5033249;28;20049;-63
2021/12/18 12:13:54;;;;;;;1999.90;999.90;;;9.00;99.90;;;;;;5040433;28;20121;-64
2021/12/18 12:16:44;;;;;;;1999.90;999.90;;;9.00;99.90;;;;;;5038883;28;20033;-64
2021/12/18 12:19:19;;;;;;;1999.90;999.90;;;8.90;99.90;;;;;;5032623;28;20049;-64
2021/12/18 12:21:48;;;;;;;1999.90;999.90;;;8.90;99.90;;;;;;5032007;28;20059;-64
2021/12/18 12:24:17;;;;;;;1999.90;999.90;;;9.00;99.90;;;;;;5048217;28;20041;-64
2021/12/18 12:26:43;;;;;;;1999.90;999.90;;;9.00;99.90;;;;;;5046269;28;20053;-64
2021/12/18 12:29:10;;;;;;;1999.90;999.90;;;9.00;99.90;;;;;;5031964;28;20395;-64
2021/12/18 12:31:37;;;;;;;1999.90;999.90;;;9.00;99.90;;;;;;5032896;28;20464;-64
2021/12/18 12:34:23;;;;;;;1999.90;999.90;;;9.00;99.90;;;;;;5033002;28;20053;-64
2021/12/18 12:36:50;;;;;;;1999.90;999.90;;;9.00;99.90;;;;;;5031632;28;20053;-64
2021/12/18 12:39:17;;;;;;;1999.90;999.90;;;9.00;99.90;;;;;;5032822;28;20087;-64
2021/12/18 12:41:50;;;;;;;1999.90;999.90;;;8.90;99.90;;;;;;5032809;28;20046;-64
2021/12/18 12:44:22;;;;;;;;;;;9.00;99.90;;;;;;5031820;28;20037;-64
2021/12/18 12:46:48;;;;;;;1999.90;999.90;;;9.00;99.90;;;;;;5032828;28;19964;-64
2021/12/18 12:49:19;;;;;;;1999.90;999.90;;;9.00;99.90;;;;;;5031962;28;20088;-64